Time;durP1;ratioP1;P1;durP2;ratioP2;P2;SDS_P1;SDS_P2;PMS_P1;PMS_P2;Temp;Humidity;BMP_temperature;BMP_pressure;BME280_temperature;BME280_humidity;BME280_pressure;Samples;Min_cycle;Max_cycle;Signal;HPM_P1;HPM_P2
2023/11/16 00:00:39;;;;;;;8.65;5.43;;;;;;;;;;5104225;28;20223;-55
2023/11/16 00:03:05;;;;;;;8.43;5.50;;;;;;;;;;5103195;28;20020;-55
2023/11/16 00:05:35;;;;;;;10.90;5.97;;;;;;;;;;5104036;28;20044;-55
2023/11/16 00:08:07;;;;;;;10.38;5.88;;;;;;;;;;5103008;28;20103;-55
2023/11/16 00:10:34;;;;;;;10.07;5.78;;;;;;;;;;5104208;28;20024;-55
2023/11/16 00:13:01;;;;;;;11.05;5.60;;;;;;;;;;5104134;28;20052;-56
2023/11/16 00:15:30;;;;;;;8.30;5.38;;;;;;;;;;5104327;28;20075;-55
2023/11/16 00:17:57;;;;;;;8.90;5.07;;;;;;;;;;5104535;28;20024;-55
2023/11/16 00:20:24;;;;;;;10.48;5.32;;;;;;;;;;5103683;28;20048;-54
2023/11/16 00:22:50;;;;;;;11.35;5.18;;;;;;;;;;5103852;28;20089;-57
2023/11/16 00:25:19;;;;;;;7.13;5.05;;;;;;;;;;5104201;28;20020;-56
2023/11/16 00:27:46;;;;;;;9.02;5.30;;;;;;;;;;5103080;28;20032;-54
2023/11/16 00:30:13;;;;;;;7.75;5.20;;;;;;;;;;5104641;28;20016;-56
2023/11/16 00:32:42;;;;;;;9.75;5.70;;;;;;;;;;5104365;28;20016;-54
2023/11/16 00:35:09;;;;;;;9.75;5.28;;;;;;;;;;5103668;28;20030;-58
2023/11/16 00:37:36;;;;;;;7.78;5.50;;;;;;;;;;5103968;28;20016;-56
2023/11/16 00:40:03;;;;;;;8.75;5.32;;;;;;;;;;5102787;28;20065;-57
2023/11/16 00:42:30;;;;;;;9.43;5.30;;;;;;;;;;5103527;28;20036;-55
2023/11/16 00:44:57;;;;;;;7.20;5.20;;;;;;;;;;5103650;28;20047;-54
2023/11/16 00:47:24;;;;;;;6.55;5.30;;;;;;;;;;5104293;28;20024;-54
2023/11/16 00:49:51;;;;;;;9.43;5.57;;;;;;;;;;5104766;28;20032;-55
2023/11/16 00:52:20;;;;;;;9.35;5.72;;;;;;;;;;5107046;28;20016;-57
2023/11/16 00:54:48;;;;;;;6.05;4.97;;;;;;;;;;5096072;28;20027;-59
2023/11/16 00:57:22;;;;;;;7.25;5.32;;;;;;;;;;5099696;28;20024;-58
2023/11/16 00:59:48;;;;;;;9.07;5.60;;;;;;;;;;5094679;28;20016;-56
2023/11/16 01:02:15;;;;;;;8.05;5.45;;;;;;;;;;5107015;28;20039;-55
2023/11/16 01:04:42;;;;;;;8.55;5.70;;;;;;;;;;5107231;28;20176;-59
2023/11/16 01:07:10;;;;;;;8.80;5.95;;;;;;;;;;5091772;28;20164;-56
2023/11/16 01:09:37;;;;;;;11.25;5.70;;;;;;;;;;5107359;28;20095;-56
2023/11/16 01:12:04;;;;;;;9.82;6.22;;;;;;;;;;5106656;28;20019;-58
2023/11/16 01:14:33;;;;;;;9.50;6.20;;;;;;;;;;5107297;28;20051;-53
2023/11/16 01:17:03;;;;;;;9.10;6.53;;;;;;;;;;5106664;28;20043;-53
2023/11/16 01:19:32;;;;;;;10.85;6.05;;;;;;;;;;5106527;28;20099;-56
2023/11/16 01:22:00;;;;;;;8.07;5.80;;;;;;;;;;5093732;28;20320;-55
2023/11/16 01:24:35;;;;;;;10.02;5.93;;;;;;;;;;5095447;28;20032;-54
2023/11/16 01:27:15;;;;;;;7.18;5.35;;;;;;;;;;5106566;28;20326;-55
2023/11/16 01:29:45;;;;;;;6.38;5.30;;;;;;;;;;5106454;28;20081;-57
2023/11/16 01:32:13;;;;;;;8.52;5.43;;;;;;;;;;5099331;28;20316;-56
2023/11/16 01:34:41;;;;;;;8.15;5.35;;;;;;;;;;5094082;28;20100;-55
2023/11/16 01:37:09;;;;;;;9.93;7.97;;;;;;;;;;5086007;28;20016;-53
2023/11/16 01:39:40;;;;;;;28.75;19.73;;;;;;;;;;5086174;28;20013;-55
2023/11/16 01:42:14;;;;;;;37.05;24.35;;;;;;;;;;5086150;28;20055;-55
2023/11/16 01:44:41;;;;;;;35.80;22.70;;;;;;;;;;5086196;28;20051;-53
2023/11/16 01:47:08;;;;;;;30.00;20.33;;;;;;;;;;5096973;28;20065;-54
2023/11/16 01:49:35;;;;;;;27.88;17.67;;;;;;;;;;5106181;28;20016;-55
2023/11/16 01:52:02;;;;;;;24.95;15.98;;;;;;;;;;5106024;28;20016;-53
2023/11/16 01:54:30;;;;;;;27.20;15.18;;;;;;;;;;5105940;28;20193;-49
2023/11/16 01:56:58;;;;;;;22.77;14.52;;;;;;;;;;5106111;28;20020;-52
2023/11/16 01:59:26;;;;;;;22.83;14.98;;;;;;;;;;5106011;28;20251;-52
2023/11/16 02:01:52;;;;;;;19.92;11.85;;;;;;;;;;5101301;28;20085;-52
2023/11/16 02:04:19;;;;;;;15.27;10.45;;;;;;;;;;5096870;28;20254;-53
2023/11/16 02:06:46;;;;;;;12.98;8.75;;;;;;;;;;5106283;28;20032;-52
2023/11/16 02:09:13;;;;;;;10.65;7.65;;;;;;;;;;5105803;28;20032;-53
2023/11/16 02:11:39;;;;;;;13.32;7.72;;;;;;;;;;5106267;28;20215;-55
2023/11/16 02:14:06;;;;;;;12.57;7.28;;;;;;;;;;5105602;28;20028;-58
2023/11/16 02:16:33;;;;;;;9.82;7.32;;;;;;;;;;5106106;28;20039;-53
2023/11/16 02:19:11;;;;;;;10.82;7.60;;;;;;;;;;5103619;28;20016;-53
2023/11/16 02:21:40;;;;;;;13.80;7.45;;;;;;;;;;5097035;28;20073;-56
2023/11/16 02:24:12;;;;;;;10.48;6.20;;;;;;;;;;5089790;28;20048;-53
2023/11/16 02:26:42;;;;;;;11.75;5.93;;;;;;;;;;5096510;28;20064;-53
2023/11/16 02:29:09;;;;;;;7.95;6.20;;;;;;;;;;5085164;28;20419;-53
2023/11/16 02:31:36;;;;;;;12.25;5.97;;;;;;;;;;5104277;28;20020;-56
2023/11/16 02:34:05;;;;;;;10.55;6.18;;;;;;;;;;5096105;28;20024;-54
2023/11/16 02:36:32;;;;;;;8.80;5.97;;;;;;;;;;5085337;28;20033;-53
2023/11/16 02:38:59;;;;;;;10.02;6.18;;;;;;;;;;5084844;28;20079;-56
2023/11/16 02:41:27;;;;;;;8.77;5.13;;;;;;;;;;5085121;28;20315;-55
2023/11/16 02:43:54;;;;;;;8.25;5.93;;;;;;;;;;5084509;28;20059;-55
2023/11/16 02:46:20;;;;;;;8.10;5.60;;;;;;;;;;5085059;28;20054;-55
2023/11/16 02:48:47;;;;;;;9.90;5.32;;;;;;;;;;5084670;28;20030;-56
2023/11/16 02:51:14;;;;;;;9.38;5.82;;;;;;;;;;5084864;28;20039;-53
2023/11/16 02:53:43;;;;;;;9.00;5.78;;;;;;;;;;5084642;28;20065;-55
2023/11/16 02:56:11;;;;;;;8.10;5.40;;;;;;;;;;5084680;28;20028;-55
2023/11/16 02:58:41;;;;;;;12.25;5.18;;;;;;;;;;5084479;28;20346;-58
2023/11/16 03:01:07;;;;;;;9.88;5.63;;;;;;;;;;5084899;28;20020;-54
2023/11/16 03:03:36;;;;;;;12.00;5.13;;;;;;;;;;5087145;28;20091;-52
2023/11/16 03:06:04;;;;;;;7.13;5.32;;;;;;;;;;5090700;28;20028;-52
2023/11/16 03:08:30;;;;;;;9.63;6.07;;;;;;;;;;5084301;28;20088;-53
2023/11/16 03:10:57;;;;;;;10.82;7.15;;;;;;;;;;5084546;28;20031;-54
2023/11/16 03:13:23;;;;;;;12.27;7.85;;;;;;;;;;5083940;28;20032;-52
2023/11/16 03:15:50;;;;;;;10.10;6.53;;;;;;;;;;5084212;28;20024;-52
2023/11/16 03:18:18;;;;;;;13.38;8.52;;;;;;;;;;5084159;28;20028;-52
2023/11/16 03:20:45;;;;;;;16.80;11.68;;;;;;;;;;5084559;28;20040;-52
2023/11/16 03:23:13;;;;;;;18.50;12.40;;;;;;;;;;5084162;28;20016;-53
2023/11/16 03:25:42;;;;;;;19.33;13.25;;;;;;;;;;5084050;28;20020;-54
2023/11/16 03:28:09;;;;;;;20.80;12.75;;;;;;;;;;5084267;28;20070;-54
2023/11/16 03:30:36;;;;;;;15.85;9.75;;;;;;;;;;5084275;28;20025;-54
2023/11/16 03:33:03;;;;;;;14.52;8.48;;;;;;;;;;5083897;28;20017;-52
2023/11/16 03:35:30;;;;;;;10.43;8.00;;;;;;;;;;5085095;28;20035;-56
2023/11/16 03:37:56;;;;;;;11.05;7.70;;;;;;;;;;5095424;28;20012;-55
2023/11/16 03:40:24;;;;;;;10.32;6.82;;;;;;;;;;5104377;28;20077;-54
2023/11/16 03:42:51;;;;;;;31.00;8.18;;;;;;;;;;5104130;28;20032;-53
2023/11/16 03:45:17;;;;;;;14.32;7.22;;;;;;;;;;5104249;28;20028;-55
2023/11/16 03:47:44;;;;;;;16.10;8.15;;;;;;;;;;5104114;28;20023;-53
2023/11/16 03:50:11;;;;;;;17.75;9.43;;;;;;;;;;5104148;28;20094;-52
2023/11/16 03:52:38;;;;;;;15.30;10.85;;;;;;;;;;5104065;28;20020;-54
2023/11/16 03:55:04;;;;;;;19.25;14.23;;;;;;;;;;5104177;28;20081;-57
2023/11/16 03:57:31;;;;;;;22.50;14.85;;;;;;;;;;5104092;28;20031;-54
2023/11/16 03:59:57;;;;;;;17.92;12.45;;;;;;;;;;5104033;28;20032;-53
2023/11/16 04:02:24;;;;;;;15.75;10.25;;;;;;;;;;5103983;28;20028;-53
2023/11/16 04:04:51;;;;;;;13.45;8.27;;;;;;;;;;5103909;28;20043;-56
2023/11/16 04:07:18;;;;;;;11.60;8.38;;;;;;;;;;5104025;28;20016;-53
2023/11/16 04:09:44;;;;;;;11.48;8.25;;;;;;;;;;5103846;28;20012;-55
2023/11/16 04:12:11;;;;;;;13.68;8.70;;;;;;;;;;5103947;28;20028;-54
2023/11/16 04:14:43;;;;;;;11.13;8.40;;;;;;;;;;5102419;28;20027;-52
2023/11/16 04:17:13;;;;;;;;;;;;;;;;;;5092238;28;20028;-54
2023/11/16 04:19:41;;;;;;;15.25;10.52;;;;;;;;;;5090337;28;19939;-54
2023/11/16 04:22:08;;;;;;;15.60;11.35;;;;;;;;;;5083700;28;20032;-55
2023/11/16 04:24:41;;;;;;;18.45;11.15;;;;;;;;;;5083604;28;20248;-53
2023/11/16 04:27:08;;;;;;;16.40;10.25;;;;;;;;;;5086182;28;20332;-53
2023/11/16 04:29:35;;;;;;;13.75;9.38;;;;;;;;;;5087338;28;20028;-57
2023/11/16 04:32:01;;;;;;;15.90;10.27;;;;;;;;;;5087158;28;20025;-56
2023/11/16 04:34:28;;;;;;;16.23;10.20;;;;;;;;;;5087333;28;20036;-56
2023/11/16 04:36:56;;;;;;;13.75;9.40;;;;;;;;;;5087265;28;20232;-56
2023/11/16 04:39:22;;;;;;;15.40;10.13;;;;;;;;;;5087003;28;20090;-55
2023/11/16 04:41:49;;;;;;;13.48;9.07;;;;;;;;;;5092994;28;20028;-55
2023/11/16 04:44:16;;;;;;;13.45;8.75;;;;;;;;;;5104412;28;20050;-54
2023/11/16 04:46:49;;;;;;;12.25;8.02;;;;;;;;;;5107709;28;20047;-56
2023/11/16 04:49:16;;;;;;;9.60;7.70;;;;;;;;;;5107335;28;20020;-54
2023/11/16 04:51:44;;;;;;;9.27;6.60;;;;;;;;;;5107766;28;20028;-53
2023/11/16 04:54:11;;;;;;;9.52;6.53;;;;;;;;;;5107170;28;20024;-54
2023/11/16 04:56:37;;;;;;;10.75;6.95;;;;;;;;;;5107612;28;20031;-54
2023/11/16 04:59:04;;;;;;;11.85;7.65;;;;;;;;;;5107110;28;20039;-53
2023/11/16 05:01:31;;;;;;;12.18;7.85;;;;;;;;;;5107161;28;20047;-54
2023/11/16 05:03:58;;;;;;;13.02;8.90;;;;;;;;;;5107018;28;20019;-55
2023/11/16 05:06:24;;;;;;;13.63;8.50;;;;;;;;;;5107436;28;20032;-55
2023/11/16 05:08:51;;;;;;;11.57;7.15;;;;;;;;;;5106994;28;20308;-54
2023/11/16 05:11:24;;;;;;;13.23;7.68;;;;;;;;;;5107248;28;20028;-55
2023/11/16 05:13:51;;;;;;;13.73;8.23;;;;;;;;;;5106764;28;20028;-52
2023/11/16 05:16:18;;;;;;;11.85;8.05;;;;;;;;;;5107163;28;20036;-54
2023/11/16 05:18:45;;;;;;;13.00;8.25;;;;;;;;;;5106820;28;20291;-55
2023/11/16 05:21:12;;;;;;;12.77;8.40;;;;;;;;;;5107229;28;20079;-56
2023/11/16 05:23:41;;;;;;;11.70;8.10;;;;;;;;;;5106502;28;20036;-55
2023/11/16 05:26:07;;;;;;;14.20;8.07;;;;;;;;;;5106936;28;20035;-56
2023/11/16 05:28:34;;;;;;;15.50;7.75;;;;;;;;;;5106619;28;20020;-54
2023/11/16 05:31:01;;;;;;;11.43;7.00;;;;;;;;;;5106782;28;20032;-55
2023/11/16 05:33:27;;;;;;;21.63;6.03;;;;;;;;;;5106549;28;20054;-56
2023/11/16 05:35:55;;;;;;;9.98;6.28;;;;;;;;;;5106780;28;20020;-56
2023/11/16 05:38:22;;;;;;;8.35;5.75;;;;;;;;;;5105913;28;20024;-55
2023/11/16 05:40:51;;;;;;;7.38;5.50;;;;;;;;;;5106592;28;20035;-53
2023/11/16 05:43:19;;;;;;;9.65;5.88;;;;;;;;;;5106094;28;20307;-54
2023/11/16 05:45:45;;;;;;;9.30;5.13;;;;;;;;;;5106076;28;20338;-54
2023/11/16 05:48:12;;;;;;;8.90;4.93;;;;;;;;;;5106449;28;20024;-56
2023/11/16 05:50:39;;;;;;;11.38;5.30;;;;;;;;;;5106309;28;20080;-54
2023/11/16 05:53:06;;;;;;;8.55;5.00;;;;;;;;;;5106058;28;20091;-54
2023/11/16 05:55:34;;;;;;;7.10;4.90;;;;;;;;;;5106359;28;20080;-55
2023/11/16 05:58:00;;;;;;;6.63;4.88;;;;;;;;;;5105983;28;20016;-53
2023/11/16 06:00:28;;;;;;;8.38;5.25;;;;;;;;;;5106095;28;20315;-57
2023/11/16 06:02:54;;;;;;;7.28;4.10;;;;;;;;;;5106079;28;20340;-58
2023/11/16 06:05:22;;;;;;;6.47;4.75;;;;;;;;;;5104676;28;20024;-58
2023/11/16 06:07:48;;;;;;;6.50;4.40;;;;;;;;;;5105705;28;20020;-54
2023/11/16 06:10:16;;;;;;;6.68;4.40;;;;;;;;;;5105930;28;20032;-57
2023/11/16 06:12:48;;;;;;;8.38;4.40;;;;;;;;;;5105826;28;20062;-55
2023/11/16 06:15:15;;;;;;;6.97;4.03;;;;;;;;;;5105705;28;20036;-56
2023/11/16 06:17:42;;;;;;;5.63;3.80;;;;;;;;;;5105751;28;20095;-55
2023/11/16 06:20:10;;;;;;;6.32;3.88;;;;;;;;;;5105683;28;20031;-53
2023/11/16 06:22:40;;;;;;;6.70;4.00;;;;;;;;;;5105575;28;20087;-55
2023/11/16 06:25:10;;;;;;;4.53;3.50;;;;;;;;;;5103074;28;20078;-56
2023/11/16 06:27:37;;;;;;;7.15;4.07;;;;;;;;;;5087717;28;20020;-54
2023/11/16 06:30:05;;;;;;;7.18;3.90;;;;;;;;;;5085443;28;20219;-54
2023/11/16 06:32:32;;;;;;;5.55;3.45;;;;;;;;;;5085379;28;20054;-54
2023/11/16 06:34:59;;;;;;;5.70;3.30;;;;;;;;;;5084986;28;20233;-55
2023/11/16 06:37:26;;;;;;;6.40;3.40;;;;;;;;;;5085085;28;20032;-55
2023/11/16 06:39:53;;;;;;;4.38;3.08;;;;;;;;;;5085155;28;20024;-57
2023/11/16 06:42:20;;;;;;;5.63;3.20;;;;;;;;;;5084861;28;20218;-56
2023/11/16 06:44:48;;;;;;;5.38;3.33;;;;;;;;;;5085045;28;20060;-52
2023/11/16 06:47:19;;;;;;;4.75;3.33;;;;;;;;;;5085141;28;20027;-52
2023/11/16 06:49:47;;;;;;;6.95;3.20;;;;;;;;;;5083955;28;20039;-54
2023/11/16 06:52:19;;;;;;;5.70;3.33;;;;;;;;;;5084566;28;20267;-55
2023/11/16 06:54:46;;;;;;;4.95;3.17;;;;;;;;;;5085335;28;20173;-54
2023/11/16 06:57:13;;;;;;;4.65;3.20;;;;;;;;;;5085040;28;20029;-53
2023/11/16 06:59:44;;;;;;;4.93;3.42;;;;;;;;;;5085585;28;20020;-53
2023/11/16 07:02:11;;;;;;;20.08;4.38;;;;;;;;;;5096114;28;20084;-52
2023/11/16 07:04:41;;;;;;;11.52;3.65;;;;;;;;;;5084249;28;20029;-57
2023/11/16 07:07:09;;;;;;;5.38;3.58;;;;;;;;;;5084599;28;20296;-56
2023/11/16 07:09:35;;;;;;;6.50;4.28;;;;;;;;;;5084423;28;20020;-58
2023/11/16 07:12:04;;;;;;;5.90;4.05;;;;;;;;;;5084270;28;20169;-55
2023/11/16 07:14:30;;;;;;;5.82;3.80;;;;;;;;;;5084541;28;20040;-56
2023/11/16 07:16:59;;;;;;;6.47;3.80;;;;;;;;;;5085066;28;20031;-55
2023/11/16 07:19:26;;;;;;;7.13;4.10;;;;;;;;;;5084420;28;20048;-55
2023/11/16 07:21:54;;;;;;;7.35;3.90;;;;;;;;;;5084163;28;20021;-57
2023/11/16 07:24:20;;;;;;;6.43;3.65;;;;;;;;;;5084583;28;20020;-54
2023/11/16 07:26:48;;;;;;;6.55;3.22;;;;;;;;;;5084779;28;20024;-55
2023/11/16 07:29:17;;;;;;;5.53;3.92;;;;;;;;;;5084458;28;20028;-56
2023/11/16 07:31:44;;;;;;;11.40;4.00;;;;;;;;;;5084742;28;20070;-53
2023/11/16 07:34:11;;;;;;;6.95;3.80;;;;;;;;;;5084213;28;20033;-55
2023/11/16 07:36:38;;;;;;;4.43;3.55;;;;;;;;;;5084936;28;20355;-55
2023/11/16 07:39:04;;;;;;;8.40;3.78;;;;;;;;;;5084389;28;20024;-55
2023/11/16 07:41:31;;;;;;;5.90;3.70;;;;;;;;;;5084638;28;20121;-55
2023/11/16 07:43:58;;;;;;;6.68;3.70;;;;;;;;;;5084260;28;20040;-55
2023/11/16 07:46:25;;;;;;;5.45;3.15;;;;;;;;;;5084576;28;20032;-56
2023/11/16 07:48:51;;;;;;;5.68;3.60;;;;;;;;;;5083929;28;20017;-53
2023/11/16 07:51:19;;;;;;;5.53;3.22;;;;;;;;;;5084891;28;20027;-56
2023/11/16 07:53:53;;;;;;;6.68;3.67;;;;;;;;;;5084029;28;20052;-54
2023/11/16 07:56:22;;;;;;;5.70;3.30;;;;;;;;;;5085427;28;20259;-52
2023/11/16 07:58:52;;;;;;;6.68;3.30;;;;;;;;;;5104035;28;20103;-53
2023/11/16 08:01:28;;;;;;;9.38;3.75;;;;;;;;;;5107642;28;20099;-55
2023/11/16 08:03:59;;;;;;;7.30;3.45;;;;;;;;;;5108313;28;20024;-55
2023/11/16 08:06:28;;;;;;;6.30;3.42;;;;;;;;;;5108495;28;20091;-58
2023/11/16 08:08:55;;;;;;;10.55;3.38;;;;;;;;;;5108701;28;20031;-56
2023/11/16 08:11:22;;;;;;;5.32;3.75;;;;;;;;;;5108912;28;20028;-58
2023/11/16 08:13:48;;;;;;;5.60;3.60;;;;;;;;;;5108478;28;20338;-59
2023/11/16 08:16:16;;;;;;;6.35;3.40;;;;;;;;;;5108177;28;20278;-59
2023/11/16 08:18:43;;;;;;;6.20;3.60;;;;;;;;;;5107991;28;20095;-59
2023/11/16 08:21:11;;;;;;;8.15;3.30;;;;;;;;;;5108536;28;20035;-57
2023/11/16 08:23:45;;;;;;;4.68;3.20;;;;;;;;;;5108279;28;20016;-58
2023/11/16 08:26:13;;;;;;;5.10;3.25;;;;;;;;;;5108767;28;20032;-58
2023/11/16 08:28:49;;;;;;;6.25;3.50;;;;;;;;;;5108081;28;20016;-60
2023/11/16 08:31:16;;;;;;;5.28;3.67;;;;;;;;;;5090203;28;20032;-58
2023/11/16 08:33:44;;;;;;;8.75;3.47;;;;;;;;;;5087553;28;20027;-56
2023/11/16 08:36:11;;;;;;;6.55;3.47;;;;;;;;;;5087585;28;20052;-58
2023/11/16 08:38:47;;;;;;;8.93;3.30;;;;;;;;;;5087256;28;20033;-58
2023/11/16 08:41:17;;;;;;;5.03;3.47;;;;;;;;;;5087476;28;20035;-58
2023/11/16 08:43:44;;;;;;;5.47;3.47;;;;;;;;;;5087370;28;20114;-56
2023/11/16 08:46:20;;;;;;;5.60;3.20;;;;;;;;;;5098503;28;20020;-55
2023/11/16 08:48:49;;;;;;;6.60;3.25;;;;;;;;;;5087241;28;20058;-58
2023/11/16 08:51:16;;;;;;;5.03;3.55;;;;;;;;;;5087337;28;20040;-56
2023/11/16 08:53:46;;;;;;;4.50;3.22;;;;;;;;;;5087219;28;20012;-57
2023/11/16 08:56:14;;;;;;;5.35;3.22;;;;;;;;;;5087251;28;20189;-58
2023/11/16 08:58:47;;;;;;;6.95;3.67;;;;;;;;;;5087236;28;20029;-55
2023/11/16 09:01:19;;;;;;;7.53;3.42;;;;;;;;;;5087039;28;20044;-58
2023/11/16 09:03:46;;;;;;;5.63;3.33;;;;;;;;;;5087076;28;20104;-56
2023/11/16 09:06:16;;;;;;;4.18;2.92;;;;;;;;;;5087301;28;20017;-55
2023/11/16 09:08:51;;;;;;;9.15;3.25;;;;;;;;;;5087127;28;20061;-57
2023/11/16 09:11:22;;;;;;;4.53;3.15;;;;;;;;;;5086643;28;20032;-56
2023/11/16 09:13:49;;;;;;;5.47;3.20;;;;;;;;;;5086508;28;20088;-58
2023/11/16 09:16:15;;;;;;;4.45;2.85;;;;;;;;;;5086889;28;20044;-58
2023/11/16 09:18:42;;;;;;;4.68;3.00;;;;;;;;;;5086951;28;20036;-58
2023/11/16 09:21:12;;;;;;;5.85;3.10;;;;;;;;;;5086824;28;20032;-59
2023/11/16 09:23:39;;;;;;;6.47;3.58;;;;;;;;;;5086262;28;20035;-57
2023/11/16 09:26:09;;;;;;;3.95;2.70;;;;;;;;;;5086836;28;20037;-58
2023/11/16 09:28:38;;;;;;;5.90;3.33;;;;;;;;;;5086530;28;20017;-50
2023/11/16 09:31:10;;;;;;;4.60;2.95;;;;;;;;;;5086630;28;20033;-57
2023/11/16 09:33:38;;;;;;;;;;;;;;;;;;5086981;28;20035;-56
2023/11/16 09:36:04;;;;;;;5.57;3.47;;;;;;;;;;5086601;28;20088;-56
2023/11/16 09:38:32;;;;;;;4.07;3.28;;;;;;;;;;5086478;28;20032;-54
2023/11/16 09:41:05;;;;;;;6.57;3.33;;;;;;;;;;5086757;28;20238;-54
2023/11/16 09:43:33;;;;;;;7.63;3.42;;;;;;;;;;5086103;28;20232;-60
2023/11/16 09:46:05;;;;;;;6.90;3.40;;;;;;;;;;5086285;28;20043;-61
2023/11/16 09:48:32;;;;;;;7.40;3.17;;;;;;;;;;5086410;28;20019;-58
2023/11/16 09:51:01;;;;;;;4.90;3.10;;;;;;;;;;5086437;28;20039;-59
2023/11/16 09:53:28;;;;;;;6.32;3.17;;;;;;;;;;5086311;28;20020;-59
2023/11/16 09:56:04;;;;;;;5.97;3.35;;;;;;;;;;5085216;28;20024;-55
2023/11/16 09:58:36;;;;;;;5.55;3.58;;;;;;;;;;5085813;28;20043;-58
2023/11/16 10:01:08;;;;;;;3.97;3.22;;;;;;;;;;5086125;28;20235;-57
2023/11/16 10:03:36;;;;;;;6.68;3.45;;;;;;;;;;5085414;28;20024;-57
2023/11/16 10:06:04;;;;;;;5.07;3.28;;;;;;;;;;5085939;28;20028;-59
2023/11/16 10:08:34;;;;;;;4.47;2.60;;;;;;;;;;5086272;28;20032;-56
2023/11/16 10:11:06;;;;;;;6.22;3.40;;;;;;;;;;5086020;28;20427;-55
2023/11/16 10:13:34;;;;;;;6.13;2.95;;;;;;;;;;5085908;28;20032;-55
2023/11/16 10:16:04;;;;;;;6.10;3.10;;;;;;;;;;5086126;28;20060;-56
2023/11/16 10:18:31;;;;;;;5.60;3.03;;;;;;;;;;5085676;28;20016;-54
2023/11/16 10:20:58;;;;;;;4.38;3.10;;;;;;;;;;5085997;28;20032;-56
2023/11/16 10:23:25;;;;;;;5.47;2.95;;;;;;;;;;5084423;28;20070;-54
2023/11/16 10:25:54;;;;;;;7.65;3.47;;;;;;;;;;5085695;28;20296;-56
2023/11/16 10:28:22;;;;;;;6.47;3.88;;;;;;;;;;5085326;28;20017;-55
2023/11/16 10:30:57;;;;;;;7.90;3.47;;;;;;;;;;5085267;28;20093;-61
2023/11/16 10:33:25;;;;;;;4.68;3.50;;;;;;;;;;5102492;28;20016;-56
2023/11/16 10:35:53;;;;;;;7.40;3.90;;;;;;;;;;5104237;28;20107;-57
2023/11/16 10:38:27;;;;;;;6.47;3.85;;;;;;;;;;5105509;28;20110;-58
2023/11/16 10:40:54;;;;;;;8.63;3.83;;;;;;;;;;5105690;28;20022;-59
2023/11/16 10:43:25;;;;;;;5.03;3.90;;;;;;;;;;5105130;28;20048;-56
2023/11/16 10:45:53;;;;;;;6.18;4.00;;;;;;;;;;5105865;28;20020;-56
2023/11/16 10:48:20;;;;;;;7.85;4.22;;;;;;;;;;5105754;28;20012;-55
2023/11/16 10:50:47;;;;;;;7.18;4.38;;;;;;;;;;5105292;28;20035;-54
2023/11/16 10:53:18;;;;;;;9.98;4.55;;;;;;;;;;5105185;28;20012;-55
2023/11/16 10:55:46;;;;;;;7.72;4.85;;;;;;;;;;5105294;28;20024;-55
2023/11/16 10:58:13;;;;;;;7.63;5.25;;;;;;;;;;5104972;28;20373;-58
2023/11/16 11:00:41;;;;;;;7.00;4.85;;;;;;;;;;5103477;28;20028;-59
2023/11/16 11:03:10;;;;;;;8.85;4.70;;;;;;;;;;5105341;28;20365;-54
2023/11/16 11:05:41;;;;;;;6.88;4.65;;;;;;;;;;5104875;28;20036;-61
2023/11/16 11:08:10;;;;;;;8.02;4.90;;;;;;;;;;5101643;28;20016;-55
2023/11/16 11:10:41;;;;;;;9.65;5.13;;;;;;;;;;5089340;28;20326;-56
2023/11/16 11:13:08;;;;;;;8.40;5.30;;;;;;;;;;5095841;28;20105;-53
2023/11/16 11:15:36;;;;;;;8.73;5.35;;;;;;;;;;5084481;28;20335;-56
2023/11/16 11:18:04;;;;;;;11.48;5.70;;;;;;;;;;5084157;28;20060;-54
2023/11/16 11:20:39;;;;;;;16.20;6.35;;;;;;;;;;5088898;28;20027;-56
2023/11/16 11:23:14;;;;;;;13.05;6.10;;;;;;;;;;5093124;28;20012;-54
2023/11/16 11:25:41;;;;;;;10.93;6.60;;;;;;;;;;5094150;28;20024;-56
2023/11/16 11:28:15;;;;;;;9.48;6.20;;;;;;;;;;5092868;28;20062;-54
2023/11/16 11:30:57;;;;;;;9.35;6.05;;;;;;;;;;5093547;28;20024;-54
2023/11/16 11:33:43;;;;;;;8.88;6.22;;;;;;;;;;5090433;28;20305;-57
2023/11/16 11:36:12;;;;;;;6.78;5.07;;;;;;;;;;5086845;28;20029;-58
2023/11/16 11:38:39;;;;;;;11.00;5.32;;;;;;;;;;5084091;28;20246;-58
2023/11/16 11:41:12;;;;;;;6.60;4.57;;;;;;;;;;5084688;28;20036;-55
2023/11/16 11:43:44;;;;;;;6.60;4.20;;;;;;;;;;5082790;28;20332;-54
2023/11/16 11:46:17;;;;;;;7.85;4.60;;;;;;;;;;5085067;28;20044;-53
2023/11/16 11:48:48;;;;;;;7.63;4.30;;;;;;;;;;5082714;28;20190;-54
2023/11/16 11:51:14;;;;;;;6.22;3.88;;;;;;;;;;5084550;28;20088;-55
2023/11/16 11:53:41;;;;;;;5.65;3.95;;;;;;;;;;5082251;28;20224;-54
2023/11/16 11:56:10;;;;;;;6.60;3.70;;;;;;;;;;5084548;28;20020;-54
2023/11/16 11:58:38;;;;;;;5.47;3.70;;;;;;;;;;5082144;28;20092;-54
2023/11/16 12:01:10;;;;;;;8.43;3.58;;;;;;;;;;5082407;28;20090;-53
2023/11/16 12:04:00;;;;;;;7.15;3.90;;;;;;;;;;5082037;28;20026;-53
2023/11/16 12:06:30;;;;;;;7.03;4.03;;;;;;;;;;5083249;28;20028;-52
2023/11/16 12:08:56;;;;;;;5.05;3.92;;;;;;;;;;5084473;28;20122;-54
2023/11/16 12:11:26;;;;;;;5.90;3.80;;;;;;;;;;5084853;28;20032;-53
2023/11/16 12:13:54;;;;;;;4.90;4.18;;;;;;;;;;5084440;28;20058;-52
2023/11/16 12:16:23;;;;;;;4.93;3.83;;;;;;;;;;5084178;28;20016;-55
2023/11/16 12:18:54;;;;;;;7.50;3.83;;;;;;;;;;5082571;28;20059;-54
2023/11/16 12:21:22;;;;;;;7.97;4.05;;;;;;;;;;5084285;28;20086;-56
2023/11/16 12:23:53;;;;;;;9.82;3.65;;;;;;;;;;5083591;28;20078;-53
2023/11/16 12:26:24;;;;;;;5.67;3.67;;;;;;;;;;5082978;28;20040;-53
2023/11/16 12:28:51;;;;;;;6.63;3.97;;;;;;;;;;5083540;28;20021;-56
2023/11/16 12:31:18;;;;;;;6.72;3.70;;;;;;;;;;5084370;28;20033;-55
2023/11/16 12:33:49;;;;;;;7.18;4.28;;;;;;;;;;5083906;28;20032;-52
2023/11/16 12:36:20;;;;;;;5.72;3.88;;;;;;;;;;5084356;28;20036;-51
2023/11/16 12:38:48;;;;;;;5.63;3.95;;;;;;;;;;5083878;28;20024;-54
2023/11/16 12:41:15;;;;;;;5.00;3.53;;;;;;;;;;5083657;28;20025;-53
2023/11/16 12:43:42;;;;;;;7.07;3.85;;;;;;;;;;5083454;28;20060;-55
2023/11/16 12:46:11;;;;;;;8.55;4.20;;;;;;;;;;5083926;28;20029;-55
2023/11/16 12:48:38;;;;;;;6.85;3.40;;;;;;;;;;5086787;28;20019;-54
2023/11/16 12:51:06;;;;;;;8.52;4.00;;;;;;;;;;5087953;28;20024;-58
2023/11/16 12:53:42;;;;;;;7.82;3.90;;;;;;;;;;5087261;28;20028;-54
2023/11/16 12:56:09;;;;;;;8.20;3.83;;;;;;;;;;5087662;28;20031;-54
2023/11/16 12:58:39;;;;;;;6.40;4.20;;;;;;;;;;5087160;28;20092;-54
2023/11/16 13:01:12;;;;;;;6.80;3.78;;;;;;;;;;5087404;28;20029;-52
2023/11/16 13:03:39;;;;;;;11.07;4.50;;;;;;;;;;5086952;28;20040;-51
2023/11/16 13:06:06;;;;;;;7.80;4.20;;;;;;;;;;5087463;28;20249;-53
2023/11/16 13:08:38;;;;;;;11.07;4.15;;;;;;;;;;5086913;28;20012;-52
2023/11/16 13:11:04;;;;;;;;;;;;;;;;;;5087809;28;20016;-54
2023/11/16 13:13:31;;;;;;;5.50;3.75;;;;;;;;;;5086987;28;19904;-54
2023/11/16 13:15:58;;;;;;;8.45;3.63;;;;;;;;;;5087118;28;20033;-53
2023/11/16 13:18:25;;;;;;;6.78;4.35;;;;;;;;;;5086827;28;20362;-55
2023/11/16 13:20:51;;;;;;;7.32;3.97;;;;;;;;;;5086916;28;20327;-55
2023/11/16 13:23:18;;;;;;;6.97;4.30;;;;;;;;;;5086316;28;20020;-54
2023/11/16 13:25:45;;;;;;;6.40;4.15;;;;;;;;;;5086605;28;20316;-53
2023/11/16 13:28:14;;;;;;;5.85;4.30;;;;;;;;;;5086554;28;20059;-55
2023/11/16 13:30:41;;;;;;;6.13;4.18;;;;;;;;;;5086604;28;20098;-54
2023/11/16 13:33:07;;;;;;;6.78;4.22;;;;;;;;;;5086926;28;20012;-53
2023/11/16 13:35:35;;;;;;;7.22;4.18;;;;;;;;;;5086727;28;20036;-58
2023/11/16 13:38:01;;;;;;;4.85;3.67;;;;;;;;;;5087011;28;20028;-54
2023/11/16 13:40:29;;;;;;;5.00;3.60;;;;;;;;;;5087166;28;20031;-55
2023/11/16 13:42:55;;;;;;;7.40;3.90;;;;;;;;;;5086888;28;20056;-54
2023/11/16 13:45:22;;;;;;;8.20;4.20;;;;;;;;;;5086510;28;20119;-54
2023/11/16 13:47:49;;;;;;;4.57;3.80;;;;;;;;;;5086793;28;20021;-56
2023/11/16 13:50:15;;;;;;;5.90;4.15;;;;;;;;;;5086476;28;20040;-55
2023/11/16 13:52:44;;;;;;;7.38;3.85;;;;;;;;;;5086370;28;20046;-57
2023/11/16 13:55:13;;;;;;;5.90;4.00;;;;;;;;;;5086240;28;20312;-54
2023/11/16 13:57:40;;;;;;;6.30;3.75;;;;;;;;;;5085991;28;20078;-53
2023/11/16 14:00:11;;;;;;;4.78;3.72;;;;;;;;;;5086261;28;20036;-53
2023/11/16 14:02:41;;;;;;;5.35;3.70;;;;;;;;;;5086665;28;20353;-54
2023/11/16 14:05:08;;;;;;;6.15;3.63;;;;;;;;;;5085853;28;20036;-55
2023/11/16 14:07:36;;;;;;;6.50;4.05;;;;;;;;;;5086216;28;20026;-55
2023/11/16 14:10:04;;;;;;;5.47;3.67;;;;;;;;;;5086279;28;20024;-55
2023/11/16 14:12:31;;;;;;;6.88;4.00;;;;;;;;;;5086235;28;20422;-54
2023/11/16 14:14:58;;;;;;;5.65;4.15;;;;;;;;;;5085924;28;20203;-55
2023/11/16 14:17:25;;;;;;;7.20;3.97;;;;;;;;;;5085781;28;20238;-54
2023/11/16 14:19:51;;;;;;;6.40;4.07;;;;;;;;;;5085537;28;20060;-50
2023/11/16 14:22:18;;;;;;;5.47;3.80;;;;;;;;;;5085272;28;20091;-52
2023/11/16 14:24:46;;;;;;;6.38;4.00;;;;;;;;;;5085784;28;20020;-53
2023/11/16 14:27:13;;;;;;;5.93;3.72;;;;;;;;;;5085608;28;20055;-51
2023/11/16 14:29:40;;;;;;;7.15;4.10;;;;;;;;;;5085547;28;20040;-52
2023/11/16 14:32:07;;;;;;;10.65;4.18;;;;;;;;;;5085543;28;20327;-52
2023/11/16 14:34:33;;;;;;;6.53;4.00;;;;;;;;;;5085265;28;20243;-52
2023/11/16 14:37:04;;;;;;;5.57;4.00;;;;;;;;;;5085230;28;20077;-55
2023/11/16 14:39:31;;;;;;;5.03;4.03;;;;;;;;;;5085293;28;20017;-54
2023/11/16 14:41:58;;;;;;;5.20;4.00;;;;;;;;;;5085649;28;20039;-55
2023/11/16 14:44:27;;;;;;;7.25;3.88;;;;;;;;;;5084939;28;20217;-58